sensor_id;sensor_type;location;lat;lon;timestamp;pressure;altitude;pressure_sealevel;temperature;humidity
75521;BME280;64102;48.628;9.002;2023-03-01T00:01:40;96720.78;;;-5.88;90.07
75521;BME280;64102;48.628;9.002;2023-03-01T00:04:05;96720.09;;;-5.98;90.22
75521;BME280;64102;48.628;9.002;2023-03-01T00:06:31;96722.38;;;-5.84;89.88
75521;BME280;64102;48.628;9.002;2023-03-01T00:08:56;96722.28;;;-5.79;89.73
75521;BME280;64102;48.628;9.002;2023-03-01T00:11:24;96712.09;;;-5.70;89.22
75521;BME280;64102;48.628;9.002;2023-03-01T00:13:52;96714.53;;;-5.66;88.34
75521;BME280;64102;48.628;9.002;2023-03-01T00:16:25;96716.97;;;-5.61;88.11
75521;BME280;64102;48.628;9.002;2023-03-01T00:18:51;96711.84;;;-5.57;88.10
75521;BME280;64102;48.628;9.002;2023-03-01T00:21:17;96718.69;;;-5.65;88.43
75521;BME280;64102;48.628;9.002;2023-03-01T00:23:43;96718.00;;;-5.73;88.93
75521;BME280;64102;48.628;9.002;2023-03-01T00:26:10;96718.00;;;-5.73;88.77
75521;BME280;64102;48.628;9.002;2023-03-01T00:28:36;96720.59;;;-5.77;89.00
75521;BME280;64102;48.628;9.002;2023-03-01T00:31:07;96721.38;;;-5.74;89.04
75521;BME280;64102;48.628;9.002;2023-03-01T00:33:34;96714.41;;;-5.58;88.17
75521;BME280;64102;48.628;9.002;2023-03-01T00:36:00;96715.50;;;-5.73;88.37
75521;BME280;64102;48.628;9.002;2023-03-01T00:38:25;96712.28;;;-5.81;88.02
75521;BME280;64102;48.628;9.002;2023-03-01T00:40:51;96704.03;;;-5.88;88.44
75521;BME280;64102;48.628;9.002;2023-03-01T00:43:17;96706.34;;;-5.77;89.01
75521;BME280;64102;48.628;9.002;2023-03-01T00:45:43;96699.81;;;-5.85;88.13
75521;BME280;64102;48.628;9.002;2023-03-01T00:48:08;96706.91;;;-6.10;88.96
75521;BME280;64102;48.628;9.002;2023-03-01T00:50:34;96705.34;;;-6.17;89.53
75521;BME280;64102;48.628;9.002;2023-03-01T00:52:59;96707.88;;;-6.17;90.31
75521;BME280;64102;48.628;9.002;2023-03-01T00:55:25;96711.06;;;-6.08;89.89
75521;BME280;64102;48.628;9.002;2023-03-01T00:57:50;96706.00;;;-6.05;90.17
75521;BME280;64102;48.628;9.002;2023-03-01T01:00:16;96701.13;;;-6.15;90.08
75521;BME280;64102;48.628;9.002;2023-03-01T01:02:41;96696.06;;;-6.12;90.17
75521;BME280;64102;48.628;9.002;2023-03-01T01:05:07;96695.25;;;-6.14;90.25
75521;BME280;64102;48.628;9.002;2023-03-01T01:07:32;96696.28;;;-6.27;90.15
75521;BME280;64102;48.628;9.002;2023-03-01T01:09:58;96690.44;;;-6.26;90.67
75521;BME280;64102;48.628;9.002;2023-03-01T01:12:23;96692.94;;;-6.26;90.55
75521;BME280;64102;48.628;9.002;2023-03-01T01:14:48;96688.03;;;-6.34;90.38
75521;BME280;64102;48.628;9.002;2023-03-01T01:17:14;96687.22;;;-6.35;90.45
75521;BME280;64102;48.628;9.002;2023-03-01T01:19:39;96685.50;;;-6.32;90.92
75521;BME280;64102;48.628;9.002;2023-03-01T01:22:05;96682.00;;;-6.22;90.88
75521;BME280;64102;48.628;9.002;2023-03-01T01:24:30;96677.97;;;-6.32;90.79
75521;BME280;64102;48.628;9.002;2023-03-01T01:26:55;96677.97;;;-6.32;91.10
75521;BME280;64102;48.628;9.002;2023-03-01T01:29:21;96683.03;;;-6.37;90.99
75521;BME280;64102;48.628;9.002;2023-03-01T01:31:47;96672.34;;;-6.48;91.68
75521;BME280;64102;48.628;9.002;2023-03-01T01:34:18;96669.66;;;-6.38;91.36
75521;BME280;64102;48.628;9.002;2023-03-01T01:36:47;96669.78;;;-6.44;91.22
75521;BME280;64102;48.628;9.002;2023-03-01T01:39:13;96666.38;;;-6.43;90.96
75521;BME280;64102;48.628;9.002;2023-03-01T01:41:41;96664.72;;;-6.42;91.15
75521;BME280;64102;48.628;9.002;2023-03-01T01:44:19;96661.41;;;-6.44;91.63
75521;BME280;64102;48.628;9.002;2023-03-01T01:46:48;96661.41;;;-6.44;91.59
75521;BME280;64102;48.628;9.002;2023-03-01T01:49:31;96659.69;;;-6.42;91.77
75521;BME280;64102;48.628;9.002;2023-03-01T01:52:19;96662.94;;;-6.36;91.56
75521;BME280;64102;48.628;9.002;2023-03-01T01:55:27;96666.22;;;-6.32;91.61
75521;BME280;64102;48.628;9.002;2023-03-01T01:57:53;96662.81;;;-6.28;91.11
75521;BME280;64102;48.628;9.002;2023-03-01T02:00:22;96656.22;;;-6.34;90.58
75521;BME280;64102;48.628;9.002;2023-03-01T02:02:50;96662.13;;;-6.36;91.35
75521;BME280;64102;48.628;9.002;2023-03-01T02:08:16;96656.88;;;-6.21;92.11
75521;BME280;64102;48.628;9.002;2023-03-01T02:10:45;96653.53;;;-6.21;92.54
75521;BME280;64102;48.628;9.002;2023-03-01T02:13:10;96649.91;;;-6.05;91.91
75521;BME280;64102;48.628;9.002;2023-03-01T02:15:38;96646.41;;;-5.97;90.20
75521;BME280;64102;48.628;9.002;2023-03-01T02:18:06;96643.66;;;-5.84;90.77
75521;BME280;64102;48.628;9.002;2023-03-01T02:20:48;96641.78;;;-5.73;90.13
75521;BME280;64102;48.628;9.002;2023-03-01T02:23:16;96641.47;;;-5.57;89.94
75521;BME280;64102;48.628;9.002;2023-03-01T02:25:49;96637.94;;;-5.47;88.92
75521;BME280;64102;48.628;9.002;2023-03-01T02:28:35;96632.00;;;-5.43;88.32
75521;BME280;64102;48.628;9.002;2023-03-01T02:31:01;96627.44;;;-5.25;87.88
75521;BME280;64102;48.628;9.002;2023-03-01T02:33:45;96623.06;;;-5.14;88.52
75521;BME280;64102;48.628;9.002;2023-03-01T02:36:17;96615.22;;;-5.01;87.64
75521;BME280;64102;48.628;9.002;2023-03-01T02:38:44;96614.19;;;-4.92;88.20
75521;BME280;64102;48.628;9.002;2023-03-01T02:41:13;96603.84;;;-4.80;87.00
75521;BME280;64102;48.628;9.002;2023-03-01T02:43:40;96606.91;;;-4.66;86.29
75521;BME280;64102;48.628;9.002;2023-03-01T02:46:08;96604.91;;;-4.52;86.42
75521;BME280;64102;48.628;9.002;2023-03-01T02:48:57;96610.56;;;-4.43;85.91
75521;BME280;64102;48.628;9.002;2023-03-01T02:56:29;96594.00;;;-4.18;85.07
75521;BME280;64102;48.628;9.002;2023-03-01T02:58:55;96592.28;;;-4.16;84.54
75521;BME280;64102;48.628;9.002;2023-03-01T03:01:26;96598.78;;;-4.08;84.18
75521;BME280;64102;48.628;9.002;2023-03-01T03:04:10;96593.53;;;-4.00;83.77
75521;BME280;64102;48.628;9.002;2023-03-01T03:06:36;96587.63;;;-3.97;83.86
75521;BME280;64102;48.628;9.002;2023-03-01T03:09:03;96586.84;;;-4.01;84.62
75521;BME280;64102;48.628;9.002;2023-03-01T03:11:29;96588.25;;;-3.89;84.65
75521;BME280;64102;48.628;9.002;2023-03-01T03:13:55;96587.38;;;-3.88;84.04
75521;BME280;64102;48.628;9.002;2023-03-01T03:16:21;96577.03;;;-3.79;84.36
75521;BME280;64102;48.628;9.002;2023-03-01T03:18:47;96576.28;;;-3.83;84.64
75521;BME280;64102;48.628;9.002;2023-03-01T03:21:14;96568.66;;;-3.80;83.72
75521;BME280;64102;48.628;9.002;2023-03-01T03:23:39;96571.09;;;-3.77;84.24
75521;BME280;64102;48.628;9.002;2023-03-01T03:26:05;96569.31;;;-3.73;84.57
75521;BME280;64102;48.628;9.002;2023-03-01T03:28:32;96572.66;;;-3.73;84.16
75521;BME280;64102;48.628;9.002;2023-03-01T03:30:57;96582.72;;;-3.71;84.35
75521;BME280;64102;48.628;9.002;2023-03-01T03:33:23;96578.41;;;-3.68;84.20
75521;BME280;64102;48.628;9.002;2023-03-01T03:35:49;96579.84;;;-3.57;84.36
75521;BME280;64102;48.628;9.002;2023-03-01T03:38:18;96575.31;;;-3.46;83.89
75521;BME280;64102;48.628;9.002;2023-03-01T03:40:50;96570.50;;;-3.55;84.03
75521;BME280;64102;48.628;9.002;2023-03-01T03:43:16;96573.06;;;-3.57;84.56
75521;BME280;64102;48.628;9.002;2023-03-01T03:45:44;96568.59;;;-3.47;83.86
75521;BME280;64102;48.628;9.002;2023-03-01T03:48:10;96568.53;;;-3.44;84.27
75521;BME280;64102;48.628;9.002;2023-03-01T03:50:37;96565.25;;;-3.48;83.98
75521;BME280;64102;48.628;9.002;2023-03-01T03:53:06;96567.72;;;-3.45;84.37
75521;BME280;64102;48.628;9.002;2023-03-01T03:55:31;96570.84;;;-3.37;84.37
75521;BME280;64102;48.628;9.002;2023-03-01T03:58:00;96570.69;;;-3.31;83.66
75521;BME280;64102;48.628;9.002;2023-03-01T04:00:32;96566.31;;;-3.26;83.86
75521;BME280;64102;48.628;9.002;2023-03-01T04:02:58;96566.94;;;-3.18;83.81
75521;BME280;64102;48.628;9.002;2023-03-01T04:05:23;96565.84;;;-3.09;83.17
75521;BME280;64102;48.628;9.002;2023-03-01T04:07:48;96561.38;;;-3.01;82.18
75521;BME280;64102;48.628;9.002;2023-03-01T04:10:18;96559.16;;;-3.11;83.32
75521;BME280;64102;48.628;9.002;2023-03-01T04:12:43;96560.81;;;-3.10;83.67
75521;BME280;64102;48.628;9.002;2023-03-01T04:15:10;96553.16;;;-2.80;82.94
75521;BME280;64102;48.628;9.002;2023-03-01T04:17:39;96549.38;;;-2.66;82.29
75521;BME280;64102;48.628;9.002;2023-03-01T04:20:08;96550.63;;;-2.52;81.83
75521;BME280;64102;48.628;9.002;2023-03-01T04:22:34;96545.44;;;-2.49;81.09
75521;BME280;64102;48.628;9.002;2023-03-01T04:25:00;96543.50;;;-2.41;81.15
75521;BME280;64102;48.628;9.002;2023-03-01T04:27:27;96543.56;;;-2.42;81.62
75521;BME280;64102;48.628;9.002;2023-03-01T04:29:52;96549.34;;;-2.39;80.54
75521;BME280;64102;48.628;9.002;2023-03-01T04:32:17;96539.84;;;-2.32;79.96
75521;BME280;64102;48.628;9.002;2023-03-01T04:34:43;96545.53;;;-2.26;80.09
75521;BME280;64102;48.628;9.002;2023-03-01T04:37:09;96544.03;;;-2.31;80.32
75521;BME280;64102;48.628;9.002;2023-03-01T04:39:34;96533.94;;;-2.31;80.20
75521;BME280;64102;48.628;9.002;2023-03-01T04:42:11;96538.16;;;-2.32;80.73
75521;BME280;64102;48.628;9.002;2023-03-01T04:44:37;96539.69;;;-2.28;80.60
75521;BME280;64102;48.628;9.002;2023-03-01T04:47:02;96539.09;;;-2.34;80.84
75521;BME280;64102;48.628;9.002;2023-03-01T04:49:27;96538.78;;;-2.25;79.83
75521;BME280;64102;48.628;9.002;2023-03-01T04:51:52;96530.38;;;-2.26;79.58
75521;BME280;64102;48.628;9.002;2023-03-01T04:54:18;96536.88;;;-2.18;78.67
75521;BME280;64102;48.628;9.002;2023-03-01T04:56:43;96530.91;;;-2.16;79.42
75521;BME280;64102;48.628;9.002;2023-03-01T04:59:08;96542.75;;;-2.18;79.78
75521;BME280;64102;48.628;9.002;2023-03-01T05:01:35;96537.84;;;-2.22;79.51
75521;BME280;64102;48.628;9.002;2023-03-01T05:04:00;96541.22;;;-2.22;80.55
75521;BME280;64102;48.628;9.002;2023-03-01T05:06:28;96537.81;;;-2.21;80.68
75521;BME280;64102;48.628;9.002;2023-03-01T05:08:54;96544.22;;;-2.11;79.87
75521;BME280;64102;48.628;9.002;2023-03-01T05:11:19;96535.66;;;-2.07;80.12
75521;BME280;64102;48.628;9.002;2023-03-01T05:13:44;96527.19;;;-2.06;79.27
75521;BME280;64102;48.628;9.002;2023-03-01T05:16:10;96524.81;;;-2.10;79.50
75521;BME280;64102;48.628;9.002;2023-03-01T05:18:36;96517.47;;;-2.18;80.12
75521;BME280;64102;48.628;9.002;2023-03-01T05:21:13;96524.97;;;-2.15;80.50
75521;BME280;64102;48.628;9.002;2023-03-01T05:23:42;96527.41;;;-2.12;79.76
75521;BME280;64102;48.628;9.002;2023-03-01T05:26:08;96527.50;;;-2.15;79.85
75521;BME280;64102;48.628;9.002;2023-03-01T05:28:33;96523.28;;;-2.14;80.32
75521;BME280;64102;48.628;9.002;2023-03-01T05:30:59;96529.28;;;-2.18;79.74
75521;BME280;64102;48.628;9.002;2023-03-01T05:33:25;96535.97;;;-2.16;79.95
75521;BME280;64102;48.628;9.002;2023-03-01T05:35:50;96534.25;;;-2.15;80.14
75521;BME280;64102;48.628;9.002;2023-03-01T05:38:17;96532.41;;;-2.10;80.33
75521;BME280;64102;48.628;9.002;2023-03-01T05:40:44;96527.50;;;-2.15;80.21
75521;BME280;64102;48.628;9.002;2023-03-01T05:43:11;96526.69;;;-2.15;80.94
75521;BME280;64102;48.628;9.002;2023-03-01T05:45:37;96530.06;;;-2.16;80.81
75521;BME280;64102;48.628;9.002;2023-03-01T05:48:04;96526.44;;;-2.09;81.05
75521;BME280;64102;48.628;9.002;2023-03-01T05:50:38;96527.19;;;-2.06;79.28
75521;BME280;64102;48.628;9.002;2023-03-01T05:53:11;96525.44;;;-2.04;80.23
75521;BME280;64102;48.628;9.002;2023-03-01T05:55:37;96523.69;;;-2.02;79.99
75521;BME280;64102;48.628;9.002;2023-03-01T05:58:05;96523.47;;;-1.96;80.08
75521;BME280;64102;48.628;9.002;2023-03-01T06:00:32;96521.84;;;-1.97;79.91
75521;BME280;64102;48.628;9.002;2023-03-01T06:02:58;96520.06;;;-1.95;78.99
75521;BME280;64102;48.628;9.002;2023-03-01T06:05:24;96520.88;;;-1.94;79.23
75521;BME280;64102;48.628;9.002;2023-03-01T06:07:50;96519.19;;;-1.94;79.73
75521;BME280;64102;48.628;9.002;2023-03-01T06:10:17;96520.84;;;-1.93;79.35
75521;BME280;64102;48.628;9.002;2023-03-01T06:12:43;96519.16;;;-1.92;79.33
75521;BME280;64102;48.628;9.002;2023-03-01T06:15:11;96514.09;;;-1.92;80.05
75521;BME280;64102;48.628;9.002;2023-03-01T06:17:38;96517.34;;;-1.89;78.49
75521;BME280;64102;48.628;9.002;2023-03-01T06:22:32;96515.03;;;-1.71;78.78
75521;BME280;64102;48.628;9.002;2023-03-01T06:24:58;96506.72;;;-1.52;78.34
75521;BME280;64102;48.628;9.002;2023-03-01T06:27:23;96505.09;;;-1.29;76.59
75521;BME280;64102;48.628;9.002;2023-03-01T06:29:48;96498.50;;;-1.12;76.18
75521;BME280;64102;48.628;9.002;2023-03-01T06:32:14;96498.03;;;-1.00;75.27
75521;BME280;64102;48.628;9.002;2023-03-01T06:34:39;96499.84;;;-0.81;75.22
75521;BME280;64102;48.628;9.002;2023-03-01T06:37:04;96508.38;;;-0.62;74.88
75521;BME280;64102;48.628;9.002;2023-03-01T06:39:31;96512.22;;;-0.32;72.79
75521;BME280;64102;48.628;9.002;2023-03-01T06:41:57;96510.47;;;-0.10;72.26
75521;BME280;64102;48.628;9.002;2023-03-01T06:44:22;96518.91;;;0.30;70.98
75521;BME280;64102;48.628;9.002;2023-03-01T06:46:48;96507.56;;;0.57;69.73
75521;BME280;64102;48.628;9.002;2023-03-01T06:49:13;96516.91;;;0.75;68.06
75521;BME280;64102;48.628;9.002;2023-03-01T06:51:41;96508.16;;;1.00;67.43
75521;BME280;64102;48.628;9.002;2023-03-01T06:54:06;96507.78;;;1.26;66.39
75521;BME280;64102;48.628;9.002;2023-03-01T06:56:32;96506.78;;;1.64;65.46
75521;BME280;64102;48.628;9.002;2023-03-01T06:58:58;96504.75;;;1.88;63.81
75521;BME280;64102;48.628;9.002;2023-03-01T07:01:24;96501.38;;;1.88;63.11
75521;BME280;64102;48.628;9.002;2023-03-01T07:03:49;96506.63;;;2.02;62.83
75521;BME280;64102;48.628;9.002;2023-03-01T07:06:14;96497.81;;;1.92;63.69
75521;BME280;64102;48.628;9.002;2023-03-01T07:08:40;96496.47;;;1.85;63.25
75521;BME280;64102;48.628;9.002;2023-03-01T07:11:06;96501.22;;;2.08;62.43
75521;BME280;64102;48.628;9.002;2023-03-01T07:13:32;96504.78;;;2.05;62.80
75521;BME280;64102;48.628;9.002;2023-03-01T07:15:57;96497.63;;;2.12;62.06
75521;BME280;64102;48.628;9.002;2023-03-01T07:18:23;96501.69;;;2.49;61.18
75521;BME280;64102;48.628;9.002;2023-03-01T07:20:49;96491.84;;;2.58;60.65
75521;BME280;64102;48.628;9.002;2023-03-01T07:23:14;96495.69;;;2.65;60.96
75521;BME280;64102;48.628;9.002;2023-03-01T07:25:40;96493.06;;;3.14;58.65
75521;BME280;64102;48.628;9.002;2023-03-01T07:28:06;96490.63;;;2.97;58.82
75521;BME280;64102;48.628;9.002;2023-03-01T07:30:31;96480.19;;;3.01;58.97
75521;BME280;64102;48.628;9.002;2023-03-01T07:32:57;96479.75;;;3.09;59.03
75521;BME280;64102;48.628;9.002;2023-03-01T07:35:25;96480.78;;;3.52;58.93
75521;BME280;64102;48.628;9.002;2023-03-01T07:37:51;96473.13;;;3.66;57.17
75521;BME280;64102;48.628;9.002;2023-03-01T07:40:16;96477.13;;;3.86;57.24
75521;BME280;64102;48.628;9.002;2023-03-01T07:42:41;96477.34;;;4.39;54.82
75521;BME280;64102;48.628;9.002;2023-03-01T07:45:07;96480.94;;;4.37;54.87
75521;BME280;64102;48.628;9.002;2023-03-01T07:47:33;96469.75;;;4.80;53.95
75521;BME280;64102;48.628;9.002;2023-03-01T07:49:58;96474.91;;;5.07;52.76
75521;BME280;64102;48.628;9.002;2023-03-01T07:52:23;96458.06;;;4.76;52.76
75521;BME280;64102;48.628;9.002;2023-03-01T07:54:49;96467.84;;;4.70;52.45
75521;BME280;64102;48.628;9.002;2023-03-01T07:57:14;96455.34;;;4.65;53.71
75521;BME280;64102;48.628;9.002;2023-03-01T07:59:40;96453.22;;;4.86;52.71
75521;BME280;64102;48.628;9.002;2023-03-01T08:02:05;96456.38;;;4.63;55.07
75521;BME280;64102;48.628;9.002;2023-03-01T08:04:31;96462.47;;;5.01;52.46
75521;BME280;64102;48.628;9.002;2023-03-01T08:06:58;96452.72;;;5.08;51.64
75521;BME280;64102;48.628;9.002;2023-03-01T08:09:24;96459.44;;;5.62;51.85
75521;BME280;64102;48.628;9.002;2023-03-01T08:11:49;96462.00;;;5.62;50.14
75521;BME280;64102;48.628;9.002;2023-03-01T08:14:15;96458.75;;;4.92;51.41
75521;BME280;64102;48.628;9.002;2023-03-01T08:16:40;96449.81;;;5.00;51.81
75521;BME280;64102;48.628;9.002;2023-03-01T08:19:07;96452.00;;;4.22;53.64
75521;BME280;64102;48.628;9.002;2023-03-01T08:21:33;96452.38;;;5.00;53.37
75521;BME280;64102;48.628;9.002;2023-03-01T08:24:03;96454.34;;;5.75;50.82
75521;BME280;64102;48.628;9.002;2023-03-01T08:26:29;96447.78;;;5.71;50.72
75521;BME280;64102;48.628;9.002;2023-03-01T08:28:55;96460.88;;;5.66;51.49
75521;BME280;64102;48.628;9.002;2023-03-01T08:31:29;96452.13;;;5.44;49.81
75521;BME280;64102;48.628;9.002;2023-03-01T08:33:57;96452.75;;;5.20;50.80
75521;BME280;64102;48.628;9.002;2023-03-01T08:36:26;96439.13;;;5.59;49.30
75521;BME280;64102;48.628;9.002;2023-03-01T08:38:52;96453.72;;;5.45;49.14
75521;BME280;64102;48.628;9.002;2023-03-01T08:41:17;96446.44;;;5.78;50.12
75521;BME280;64102;48.628;9.002;2023-03-01T08:43:43;96447.44;;;6.02;47.69
75521;BME280;64102;48.628;9.002;2023-03-01T08:46:09;96444.78;;;5.64;48.73
75521;BME280;64102;48.628;9.002;2023-03-01T08:48:35;96456.75;;;6.03;49.17
75521;BME280;64102;48.628;9.002;2023-03-01T08:51:14;96441.06;;;6.33;48.22
75521;BME280;64102;48.628;9.002;2023-03-01T08:53:41;96441.41;;;5.64;49.18
75521;BME280;64102;48.628;9.002;2023-03-01T08:56:07;96444.78;;;6.29;47.17
75521;BME280;64102;48.628;9.002;2023-03-01T08:58:33;96441.50;;;6.02;47.83
75521;BME280;64102;48.628;9.002;2023-03-01T09:00:58;96443.44;;;5.19;48.62
75521;BME280;64102;48.628;9.002;2023-03-01T09:03:24;96434.97;;;5.71;49.34
75521;BME280;64102;48.628;9.002;2023-03-01T09:05:50;96433.53;;;5.27;48.79
75521;BME280;64102;48.628;9.002;2023-03-01T09:08:19;96438.56;;;5.02;49.35
75521;BME280;64102;48.628;9.002;2023-03-01T09:10:45;96430.97;;;5.67;47.85
75521;BME280;64102;48.628;9.002;2023-03-01T09:13:13;96427.91;;;5.74;48.68
75521;BME280;64102;48.628;9.002;2023-03-01T09:15:39;96418.66;;;6.11;47.49
75521;BME280;64102;48.628;9.002;2023-03-01T09:18:05;96414.34;;;6.73;46.64
75521;BME280;64102;48.628;9.002;2023-03-01T09:20:31;96405.00;;;6.23;47.50
75521;BME280;64102;48.628;9.002;2023-03-01T09:22:57;96401.31;;;6.02;47.26
75521;BME280;64102;48.628;9.002;2023-03-01T09:25:23;96403.97;;;6.01;48.07
75521;BME280;64102;48.628;9.002;2023-03-01T09:27:51;96401.50;;;5.99;47.76
75521;BME280;64102;48.628;9.002;2023-03-01T09:30:17;96405.34;;;5.54;48.29
75521;BME280;64102;48.628;9.002;2023-03-01T09:32:42;96411.91;;;5.19;48.87
75521;BME280;64102;48.628;9.002;2023-03-01T09:35:10;96419.44;;;5.87;49.27
75521;BME280;64102;48.628;9.002;2023-03-01T09:37:36;96413.00;;;5.54;49.55
75521;BME280;64102;48.628;9.002;2023-03-01T09:40:03;96402.72;;;6.81;46.20
75521;BME280;64102;48.628;9.002;2023-03-01T09:42:32;96402.56;;;7.18;45.20
75521;BME280;64102;48.628;9.002;2023-03-01T09:47:35;96405.56;;;4.85;50.82
75521;BME280;64102;48.628;9.002;2023-03-01T09:50:18;96418.19;;;5.27;50.61
75521;BME280;64102;48.628;9.002;2023-03-01T09:52:52;96397.03;;;6.52;46.42
75521;BME280;64102;48.628;9.002;2023-03-01T09:55:29;96398.47;;;7.97;43.07
75521;BME280;64102;48.628;9.002;2023-03-01T09:58:17;96399.78;;;8.69;41.69
75521;BME280;64102;48.628;9.002;2023-03-01T10:00:48;96404.94;;;8.36;41.95
75521;BME280;64102;48.628;9.002;2023-03-01T10:03:21;96403.38;;;8.00;42.39
75521;BME280;64102;48.628;9.002;2023-03-01T10:06:01;96396.66;;;8.32;42.74
75521;BME280;64102;48.628;9.002;2023-03-01T10:08:42;96385.81;;;8.94;40.08
75521;BME280;64102;48.628;9.002;2023-03-01T10:11:24;96397.22;;;8.36;40.59
75521;BME280;64102;48.628;9.002;2023-03-01T10:17:00;96382.22;;;9.28;40.17
75521;BME280;64102;48.628;9.002;2023-03-01T10:19:39;96382.81;;;9.21;39.50
75521;BME280;64102;48.628;9.002;2023-03-01T10:22:19;96379.28;;;9.22;39.25
75521;BME280;64102;48.628;9.002;2023-03-01T10:24:47;96382.50;;;8.16;40.82
75521;BME280;64102;48.628;9.002;2023-03-01T10:27:22;96376.13;;;8.75;41.48
75521;BME280;64102;48.628;9.002;2023-03-01T10:29:50;96369.16;;;9.62;39.50
75521;BME280;64102;48.628;9.002;2023-03-01T10:32:18;96363.09;;;8.45;41.11
75521;BME280;64102;48.628;9.002;2023-03-01T10:34:44;96371.50;;;9.33;39.33
75521;BME280;64102;48.628;9.002;2023-03-01T10:37:16;96371.97;;;9.38;38.34
75521;BME280;64102;48.628;9.002;2023-03-01T10:39:57;96375.88;;;9.74;38.65
75521;BME280;64102;48.628;9.002;2023-03-01T10:42:28;96368.41;;;9.71;38.05
75521;BME280;64102;48.628;9.002;2023-03-01T10:44:54;96367.50;;;9.19;38.75
75521;BME280;64102;48.628;9.002;2023-03-01T10:47:22;96358.16;;;8.64;40.73
75521;BME280;64102;48.628;9.002;2023-03-01T10:52:32;96351.41;;;9.27;40.44
75521;BME280;64102;48.628;9.002;2023-03-01T10:55:03;96351.44;;;9.68;39.96
75521;BME280;64102;48.628;9.002;2023-03-01T10:57:36;96347.41;;;9.02;40.33
75521;BME280;64102;48.628;9.002;2023-03-01T11:00:16;96347.41;;;9.34;38.95
75521;BME280;64102;48.628;9.002;2023-03-01T11:02:48;96352.91;;;8.66;41.00
75521;BME280;64102;48.628;9.002;2023-03-01T11:08:06;96332.81;;;9.85;37.80
75521;BME280;64102;48.628;9.002;2023-03-01T11:10:34;96322.34;;;10.38;37.27
75521;BME280;64102;48.628;9.002;2023-03-01T11:13:18;96338.28;;;10.53;35.92
75521;BME280;64102;48.628;9.002;2023-03-01T11:16:07;96321.97;;;10.12;37.87
75521;BME280;64102;48.628;9.002;2023-03-01T11:18:35;96322.97;;;10.21;39.03
75521;BME280;64102;48.628;9.002;2023-03-01T11:21:01;96321.09;;;10.02;38.16
75521;BME280;64102;48.628;9.002;2023-03-01T11:23:29;96311.66;;;10.52;36.88
75521;BME280;64102;48.628;9.002;2023-03-01T11:25:59;96301.75;;;10.76;35.01
75521;BME280;64102;48.628;9.002;2023-03-01T11:28:28;96305.00;;;11.65;35.11
75521;BME280;64102;48.628;9.002;2023-03-01T11:30:58;96294.91;;;11.81;35.94
75521;BME280;64102;48.628;9.002;2023-03-01T11:38:47;96299.13;;;10.08;37.62
75521;BME280;64102;48.628;9.002;2023-03-01T11:41:20;96274.81;;;10.31;37.55
75521;BME280;64102;48.628;9.002;2023-03-01T11:43:54;96285.81;;;10.33;36.68
75521;BME280;64102;48.628;9.002;2023-03-01T11:49:05;96268.38;;;10.16;37.49
75521;BME280;64102;48.628;9.002;2023-03-01T11:56:51;96268.03;;;10.30;38.29
75521;BME280;64102;48.628;9.002;2023-03-01T11:59:55;96266.44;;;10.58;37.15
75521;BME280;64102;48.628;9.002;2023-03-01T12:08:17;96253.00;;;10.93;35.41
75521;BME280;64102;48.628;9.002;2023-03-01T12:25:34;96226.19;;;11.32;37.06
75521;BME280;64102;48.628;9.002;2023-03-01T12:36:39;96208.13;;;11.69;35.23
75521;BME280;64102;48.628;9.002;2023-03-01T12:50:44;96174.78;;;12.03;34.90
75521;BME280;64102;48.628;9.002;2023-03-01T12:53:30;96177.06;;;11.42;35.43
75521;BME280;64102;48.628;9.002;2023-03-01T12:56:04;96176.63;;;10.90;36.12
75521;BME280;64102;48.628;9.002;2023-03-01T13:01:41;96174.22;;;10.69;36.37
75521;BME280;64102;48.628;9.002;2023-03-01T13:07:02;96162.28;;;11.61;34.82
75521;BME280;64102;48.628;9.002;2023-03-01T13:09:39;96157.44;;;11.49;35.47
75521;BME280;64102;48.628;9.002;2023-03-01T13:17:53;96155.66;;;11.12;35.22
75521;BME280;64102;48.628;9.002;2023-03-01T13:20:22;96159.47;;;11.08;36.29
75521;BME280;64102;48.628;9.002;2023-03-01T13:23:04;96154.22;;;11.47;35.50
75521;BME280;64102;48.628;9.002;2023-03-01T13:25:30;96155.66;;;11.03;36.65
75521;BME280;64102;48.628;9.002;2023-03-01T13:28:49;96147.28;;;9.95;38.36
75521;BME280;64102;48.628;9.002;2023-03-01T13:34:00;96154.06;;;11.02;36.40
75521;BME280;64102;48.628;9.002;2023-03-01T13:41:55;96141.00;;;11.03;36.54
75521;BME280;64102;48.628;9.002;2023-03-01T13:46:48;96141.38;;;10.52;37.21
75521;BME280;64102;48.628;9.002;2023-03-01T13:49:18;96141.16;;;10.06;38.09
75521;BME280;64102;48.628;9.002;2023-03-01T13:51:47;96137.66;;;10.84;37.44
75521;BME280;64102;48.628;9.002;2023-03-01T13:54:14;96148.81;;;10.65;37.29
75521;BME280;64102;48.628;9.002;2023-03-01T13:56:40;96146.47;;;10.14;36.72
75521;BME280;64102;48.628;9.002;2023-03-01T13:59:14;96144.59;;;10.64;37.48
75521;BME280;64102;48.628;9.002;2023-03-01T14:01:40;96140.81;;;10.39;38.90
75521;BME280;64102;48.628;9.002;2023-03-01T14:04:28;96129.81;;;10.47;37.86
75521;BME280;64102;48.628;9.002;2023-03-01T14:09:39;96130.84;;;10.06;38.16
75521;BME280;64102;48.628;9.002;2023-03-01T14:19:58;96135.59;;;9.41;39.98
75521;BME280;64102;48.628;9.002;2023-03-01T14:22:29;96134.03;;;8.58;41.06
75521;BME280;64102;48.628;9.002;2023-03-01T14:25:00;96144.16;;;9.52;39.06
75521;BME280;64102;48.628;9.002;2023-03-01T14:27:31;96135.44;;;9.43;40.74
75521;BME280;64102;48.628;9.002;2023-03-01T14:30:04;96131.72;;;8.75;41.52
75521;BME280;64102;48.628;9.002;2023-03-01T14:32:35;96142.19;;;8.63;42.32
75521;BME280;64102;48.628;9.002;2023-03-01T14:35:00;96153.03;;;9.08;40.46
75521;BME280;64102;48.628;9.002;2023-03-01T14:37:34;96154.41;;;8.18;43.09
75521;BME280;64102;48.628;9.002;2023-03-01T14:40:03;96142.69;;;7.93;43.65
75521;BME280;64102;48.628;9.002;2023-03-01T14:42:35;96150.44;;;8.14;43.43
75521;BME280;64102;48.628;9.002;2023-03-01T14:45:03;96153.31;;;8.42;42.19
75521;BME280;64102;48.628;9.002;2023-03-01T14:47:35;96156.41;;;8.78;41.43
75521;BME280;64102;48.628;9.002;2023-03-01T14:50:29;96153.31;;;9.05;41.73
75521;BME280;64102;48.628;9.002;2023-03-01T14:53:05;96158.91;;;8.68;42.16
75521;BME280;64102;48.628;9.002;2023-03-01T14:55:35;96162.84;;;8.51;42.18
75521;BME280;64102;48.628;9.002;2023-03-01T14:58:08;96159.22;;;8.11;42.67
75521;BME280;64102;48.628;9.002;2023-03-01T15:00:35;96156.00;;;7.87;43.93
75521;BME280;64102;48.628;9.002;2023-03-01T15:03:07;96160.06;;;8.12;43.49